Western King — CY7367 — position and weather

sailwx.info

Track history (hours):
 
Tides and Currents Weather Stations Pressure Air Temp Water Temp Dewpoint Dewpoint Depression Visibility Wind Speed Wind Dir Waves Ship Positions

Western King

Last reported at 2015-Aug-27 01:32 UTC. Time now 2015-Sep-05 10:18 UTC.
Position N 50°02' W 125°15'.
Warning: this ship's position is 9 days out of date.

Length 23 m; draft 3.8 m.

Type: Fishing. MMSI: 316003779.

Date/timePositionNaut miles runAvg speedWind from/ knotsBaromVisibWave heightAir tempDewpointWater temp
2015-Aug-27 01:32N 50°02' W 125°15'0 0.0
2015-Aug-27 00:33N 50°02' W 125°15'0 0.0
2015-Aug-26 23:32N 50°02' W 125°15'3 3.2
2015-Aug-26 22:32N 49°59' W 125°13'28 9.2
2015-Aug-26 19:32N 49°38' W 124°45'9 9.2
2015-Aug-26 18:33N 49°32' W 124°35'9 8.8
2015-Aug-26 17:33N 49°25' W 124°26'5 4.3
2015-Aug-26 16:18N 49°21' W 124°21'0 0.0
2015-Aug-26 15:33N 49°21' W 124°21'0 0.1
2015-Aug-26 14:32N 49°21' W 124°21'0 0.0
2015-Aug-26 13:33N 49°21' W 124°21'0 0.0
2015-Aug-26 12:33N 49°21' W 124°21'0 0.0
2015-Aug-26 11:25N 49°21' W 124°21'0 0.0
2015-Aug-26 10:33N 49°21' W 124°21'0 0.0
2015-Aug-26 09:33N 49°21' W 124°21'5 4.7
2015-Aug-26 08:32N 49°23' W 124°15'8 7.7
2015-Aug-26 07:33N 49°29' W 124°07'8 8.0
2015-Aug-26 06:33N 49°37' W 124°06'8 7.9
2015-Aug-26 05:33N 49°44' W 124°02'6 6.5
2015-Aug-26 04:33N 49°43' W 123°53'5 5.1
2015-Aug-26 03:33N 49°43' W 123°45'0 0.5
2015-Aug-26 02:33N 49°44' W 123°45'5 5.2
2015-Aug-26 01:33N 49°43' W 123°53'4 4.3
2015-Aug-26 00:33N 49°47' W 123°55'1 1.3
2015-Aug-25 23:33N 49°48' W 123°55'1 1.5
2015-Aug-25 22:33N 49°47' W 123°56'3 2.7
2015-Aug-25 21:33N 49°49' W 123°54'1 1.3
2015-Aug-25 20:33N 49°50' W 123°53'5 4.6
2015-Aug-25 19:33N 49°55' W 123°52'0 0.1
2015-Aug-25 18:33N 49°55' W 123°52'0 0.1
2015-Aug-25 17:33N 49°55' W 123°53'0 0.2
2015-Aug-25 16:34N 49°55' W 123°53'0 0.2
2015-Aug-25 15:33N 49°55' W 123°53'0 0.1
2015-Aug-25 14:33N 49°55' W 123°53'0 0.2
2015-Aug-25 13:33N 49°55' W 123°53'0 0.0
2015-Aug-25 12:33N 49°55' W 123°53'0 0.0
2015-Aug-25 11:33N 49°55' W 123°53'0 0.0
2015-Aug-25 10:32N 49°55' W 123°53'0 0.0
2015-Aug-25 09:33N 49°55' W 123°53'0 0.0
2015-Aug-25 08:33N 49°55' W 123°53'0 0.0
2015-Aug-25 07:33N 49°55' W 123°53'0 0.0
2015-Aug-25 06:33N 49°55' W 123°53'0 0.0
2015-Aug-25 05:33N 49°55' W 123°53'5 5.2
2015-Aug-25 04:33N 49°50' W 123°54'7 6.5
2015-Aug-25 03:33N 49°44' W 123°53'4 4.4
2015-Aug-25 02:33N 49°43' W 123°47'0 0.3
2015-Aug-25 01:34N 49°43' W 123°46'0 0.4
2015-Aug-25 00:33N 49°43' W 123°47'1 0.7
2015-Aug-24 23:33N 49°43' W 123°46'1 0.7
2015-Aug-24 22:33N 49°43' W 123°47'1 0.7
2015-Aug-24 21:33N 49°43' W 123°46'0 0.2
2015-Aug-24 20:33N 49°43' W 123°46'0 0.4
2015-Aug-24 19:33N 49°43' W 123°46'0 0.1
2015-Aug-24 18:33N 49°43' W 123°46'0 0.5
2015-Aug-24 17:33N 49°43' W 123°47'0 0.1
2015-Aug-24 16:33N 49°43' W 123°47'0 0.5
2015-Aug-24 15:33N 49°43' W 123°46'1 0.6
2015-Aug-24 14:33N 49°43' W 123°47'0 0.0
2015-Aug-24 13:33N 49°43' W 123°47'0 0.0
2015-Aug-24 12:33N 49°43' W 123°47'0 0.0
2015-Aug-24 11:33N 49°43' W 123°47'0 0.0
2015-Aug-24 10:33N 49°43' W 123°47'0 0.0
2015-Aug-24 09:33N 49°43' W 123°47'6 5.8
2015-Aug-24 08:33N 49°45' W 123°55'7 7.6
2015-Aug-24 07:33N 49°41' W 124°04'9 8.6
2015-Aug-24 06:33N 49°33' W 124°00'9 9.2
2015-Aug-24 05:33N 49°26' W 123°50'10 9.6
2015-Aug-24 04:33N 49°19' W 123°40'9 9.1
2015-Aug-24 03:33N 49°13' W 123°30'9 8.8
2015-Aug-24 02:33N 49°07' W 123°20'6 6.4
2015-Aug-24 01:33N 49°07' W 123°10'1 0.8
2015-Aug-24 00:33N 49°07' W 123°11'0 0.0
2015-Aug-23 23:33N 49°07' W 123°11'0 0.0
2015-Aug-23 22:33N 49°07' W 123°11'0 0.0
2015-Aug-23 21:33N 49°07' W 123°11'1 0.8
2015-Aug-23 20:33N 49°07' W 123°10'1 0.9
2015-Aug-23 19:33N 49°07' W 123°11'0 0.0
2015-Aug-23 18:34N 49°07' W 123°11'0 0.0
2015-Aug-23 17:34N 49°07' W 123°11'0 0.0
2015-Aug-23 16:33N 49°07' W 123°11'0 0.0
2015-Aug-23 15:33N 49°07' W 123°11'0 0.0
2015-Aug-23 14:33N 49°07' W 123°11'0 0.0
2015-Aug-23 13:34N 49°07' W 123°11'0 0.0
2015-Aug-23 12:34N 49°07' W 123°11'0 0.0
2015-Aug-23 11:34N 49°07' W 123°11'0 0.0
2015-Aug-23 10:34N 49°07' W 123°11'0 0.0
2015-Aug-23 09:34N 49°07' W 123°11'0 0.0
2015-Aug-23 08:33N 49°07' W 123°11'0 0.0
2015-Aug-23 07:33N 49°07' W 123°11'0 0.0
2015-Aug-23 06:33N 49°07' W 123°11'0 0.0
2015-Aug-23 05:33N 49°07' W 123°11'0 0.0
2015-Aug-23 04:33N 49°07' W 123°11'0 0.0
2015-Aug-23 03:34N 49°07' W 123°11'0 0.0
2015-Aug-23 02:33N 49°07' W 123°11'0 0.0
2015-Aug-23 01:33N 49°07' W 123°11'0 0.0
2015-Aug-23 00:33N 49°07' W 123°11'0 0.0
2015-Aug-22 23:34N 49°07' W 123°11'0 0.0
2015-Aug-22 22:34N 49°07' W 123°11'0 0.0
2015-Aug-22 21:34N 49°07' W 123°11'0 0.0
2015-Aug-22 20:33N 49°07' W 123°11'5 4.8
2015-Aug-22 19:33N 49°06' W 123°18'9 9.2
2015-Aug-22 18:33N 49°16' W 123°17'8 8.2
2015-Aug-22 17:33N 49°12' W 123°06'0 0.2
2015-Aug-22 16:33N 49°12' W 123°06'0 0.0
2015-Aug-22 15:33N 49°12' W 123°06'0 0.0
2015-Aug-22 14:33N 49°12' W 123°06'0 0.0
2015-Aug-22 13:33N 49°12' W 123°06'0 0.0
2015-Aug-22 12:33N 49°12' W 123°06'0 0.0
2015-Aug-22 11:33N 49°12' W 123°06'0 0.0
2015-Aug-22 10:33N 49°12' W 123°06'0 0.0
2015-Aug-22 09:33N 49°12' W 123°06'3 3.0
2015-Aug-22 08:33N 49°13' W 123°10'7 7.2
2015-Aug-22 07:33N 49°17' W 123°20'8 8.2
2015-Aug-22 06:33N 49°20' W 123°31'8 8.1
2015-Aug-22 05:33N 49°24' W 123°42'8 8.2
2015-Aug-22 04:33N 49°28' W 123°53'8 8.0
2015-Aug-22 03:33N 49°33' W 124°02'8 7.9
2015-Aug-22 02:33N 49°41' W 124°04'7 6.9
2015-Aug-22 01:33N 49°45' W 123°56'4 3.8
2015-Aug-22 00:34N 49°42' W 123°53'5 4.5
2015-Aug-21 23:34N 49°43' W 123°46'0 0.0
2015-Aug-21 22:33N 49°43' W 123°46'0 0.1
2015-Aug-21 21:33N 49°43' W 123°46'0 0.3
2015-Aug-21 20:33N 49°43' W 123°46'0 0.3
2015-Aug-21 19:34N 49°43' W 123°46'0 0.1
2015-Aug-21 18:33N 49°43' W 123°46'0 0.0
2015-Aug-21 17:33N 49°43' W 123°46'0 0.1
2015-Aug-21 16:33N 49°43' W 123°46'1 0.6
2015-Aug-21 15:33N 49°43' W 123°47'1 0.6
2015-Aug-21 14:33N 49°43' W 123°46'2 2.0
2015-Aug-21 13:33N 49°41' W 123°48'2 1.5
2015-Aug-21 12:33N 49°40' W 123°50'0 0.0
2015-Aug-21 11:33N 49°40' W 123°50'0 0.0
2015-Aug-21 10:33N 49°40' W 123°50'0 0.0
2015-Aug-21 09:33N 49°40' W 123°50'0 0.0
2015-Aug-21 08:33N 49°40' W 123°50'0 0.0
2015-Aug-21 07:33N 49°40' W 123°50'0 0.0
2015-Aug-21 06:33N 49°40' W 123°50'0 0.0
2015-Aug-21 05:33N 49°40' W 123°50'0 0.0
2015-Aug-21 04:33N 49°40' W 123°50'0 0.0
2015-Aug-21 03:33N 49°40' W 123°50'0 0.3
2015-Aug-21 02:33N 49°40' W 123°50'4 3.6
2015-Aug-21 01:33N 49°43' W 123°46'0 0.5
2015-Aug-21 00:33N 49°43' W 123°47'0 0.4
2015-Aug-20 23:34N 49°43' W 123°46'0 0.0
2015-Aug-20 22:34N 49°43' W 123°46'4 3.7
2015-Aug-20 21:33N 49°40' W 123°50'4 3.8
2015-Aug-20 20:33N 49°38' W 123°45'8 8.3
2015-Aug-20 19:33N 49°41' W 123°34'1 1.4
2015-Aug-20 18:33N 49°40' W 123°36'1 1.0
2015-Aug-20 17:33N 49°41' W 123°34'0 0.3
2015-Aug-20 16:33N 49°41' W 123°35'1 1.5
2015-Aug-20 15:34N 49°40' W 123°36'7 6.8
2015-Aug-20 14:34N 49°37' W 123°46'7 6.5
2015-Aug-20 13:33N 49°42' W 123°53'6 6.3
2015-Aug-20 12:33N 49°47' W 123°60'8 8.2
2015-Aug-20 11:33N 49°46' W 124°12'8 8.1
2015-Aug-20 10:33N 49°45' W 124°25'10 9.6
2015-Aug-20 09:33N 49°49' W 124°38'9 9.5
2015-Aug-20 08:33N 49°52' W 124°52'10 9.5
2015-Aug-20 07:33N 49°55' W 125°06'7 7.5
2015-Aug-20 06:33N 50°01' W 125°14'6 6.2
2015-Aug-20 05:33N 50°07' W 125°17'4 4.3
2015-Aug-20 04:33N 50°03' W 125°14'1 0.6
2015-Aug-20 03:33N 50°02' W 125°15'0 0.0
2015-Aug-20 02:33N 50°02' W 125°15'0 0.1
2015-Aug-20 01:33N 50°02' W 125°15'0 0.1
2015-Aug-20 00:34N 50°02' W 125°15'0 0.0
2015-Aug-19 23:33N 50°02' W 125°15'0 0.0
2015-Aug-19 22:33N 50°02' W 125°15'0 0.0
2015-Aug-19 18:04N 50°02' W 125°15'0 0.0
2015-Aug-19 17:33N 50°02' W 125°15'0 0.0
2015-Aug-19 16:33N 50°02' W 125°15'0 0.0
2015-Aug-19 15:33N 50°02' W 125°15'0 0.0
2015-Aug-19 14:33N 50°02' W 125°15'0 0.0
2015-Aug-19 13:33N 50°02' W 125°15'0 0.0
2015-Aug-19 12:33N 50°02' W 125°15'0 0.0
2015-Aug-19 11:33N 50°02' W 125°15'0 0.0
2015-Aug-19 10:33N 50°02' W 125°15'0 0.0
2015-Aug-19 09:33N 50°02' W 125°15'0 0.0
2015-Aug-19 08:33N 50°02' W 125°15'0 0.0
2015-Aug-19 07:33N 50°02' W 125°15'0 0.0
2015-Aug-19 06:33N 50°02' W 125°15'0 0.0
2015-Aug-19 05:33N 50°02' W 125°15'0 0.0
2015-Aug-19 04:33N 50°02' W 125°15'0 0.0
2015-Aug-19 03:33N 50°02' W 125°15'0 0.0
2015-Aug-19 02:33N 50°02' W 125°15'0 0.0
2015-Aug-19 01:33N 50°02' W 125°15'0 0.0
2015-Aug-19 00:33N 50°02' W 125°15'0 0.0
2015-Aug-18 23:33N 50°02' W 125°15'0 0.0
2015-Aug-18 22:33N 50°02' W 125°15'0 0.0
2015-Aug-18 21:33N 50°02' W 125°15'0 0.0
2015-Aug-18 20:33N 50°02' W 125°15'0 0.0
2015-Aug-18 19:33N 50°02' W 125°15'0 0.0
2015-Aug-18 18:33N 50°02' W 125°15'0 0.0
2015-Aug-18 17:33N 50°02' W 125°15'0 0.0
2015-Aug-18 16:33N 50°02' W 125°15'0 0.0
2015-Aug-18 15:33N 50°02' W 125°15'0 0.0
2015-Aug-18 14:33N 50°02' W 125°15'0 0.0
2015-Aug-18 13:33N 50°02' W 125°15'0 0.0
2015-Aug-18 12:33N 50°02' W 125°15'0 0.0
2015-Aug-18 11:33N 50°02' W 125°15'0 0.0
2015-Aug-18 10:33N 50°02' W 125°15'0 0.0
2015-Aug-18 09:33N 50°02' W 125°15'0 0.0
2015-Aug-18 08:33N 50°02' W 125°15'0 0.0
2015-Aug-18 07:33N 50°02' W 125°15'0 0.0
2015-Aug-18 06:33N 50°02' W 125°15'0 0.0
2015-Aug-18 05:33N 50°02' W 125°15'0 0.0
2015-Aug-18 04:33N 50°02' W 125°15'0 0.0
2015-Aug-18 04:11N 50°02' W 125°15'0 0.0
2015-Aug-18 04:08N 50°02' W 125°15'0 0.0
2015-Aug-18 03:33N 50°02' W 125°15'0 0.0
2015-Aug-18 02:33N 50°02' W 125°15'0 0.0
2015-Aug-18 01:33N 50°02' W 125°15'0 0.1
2015-Aug-18 00:33N 50°02' W 125°15'0 0.0
2015-Aug-17 23:33N 50°02' W 125°15'  
Track history (hours):
 
Tides and Currents Weather Stations Pressure Air Temp Water Temp Dewpoint Dewpoint Depression Visibility Wind Speed Wind Dir Waves Ship Positions

Western King

Last reported at 2015-Aug-27 01:32 UTC. Time now 2015-Sep-05 10:18 UTC.
Position N 50°02' W 125°15'.
Warning: this ship's position is 9 days out of date.

Length 23 m; draft 3.8 m.

Type: Fishing. MMSI: 316003779.

Date/timePositionNaut miles runAvg speedWind from/ knotsBaromVisibWave heightAir tempDewpointWater temp
2015-Aug-27 01:32N 50°02' W 125°15'0 0.0
2015-Aug-27 00:33N 50°02' W 125°15'0 0.0
2015-Aug-26 23:32N 50°02' W 125°15'3 3.2
2015-Aug-26 22:32N 49°59' W 125°13'28 9.2
2015-Aug-26 19:32N 49°38' W 124°45'9 9.2
2015-Aug-26 18:33N 49°32' W 124°35'9 8.8
2015-Aug-26 17:33N 49°25' W 124°26'5 4.3
2015-Aug-26 16:18N 49°21' W 124°21'0 0.0
2015-Aug-26 15:33N 49°21' W 124°21'0 0.1
2015-Aug-26 14:32N 49°21' W 124°21'0 0.0
2015-Aug-26 13:33N 49°21' W 124°21'0 0.0
2015-Aug-26 12:33N 49°21' W 124°21'0 0.0
2015-Aug-26 11:25N 49°21' W 124°21'0 0.0
2015-Aug-26 10:33N 49°21' W 124°21'0 0.0
2015-Aug-26 09:33N 49°21' W 124°21'5 4.7
2015-Aug-26 08:32N 49°23' W 124°15'8 7.7
2015-Aug-26 07:33N 49°29' W 124°07'8 8.0
2015-Aug-26 06:33N 49°37' W 124°06'8 7.9
2015-Aug-26 05:33N 49°44' W 124°02'6 6.5
2015-Aug-26 04:33N 49°43' W 123°53'5 5.1
2015-Aug-26 03:33N 49°43' W 123°45'0 0.5
2015-Aug-26 02:33N 49°44' W 123°45'5 5.2
2015-Aug-26 01:33N 49°43' W 123°53'4 4.3
2015-Aug-26 00:33N 49°47' W 123°55'1 1.3
2015-Aug-25 23:33N 49°48' W 123°55'1 1.5
2015-Aug-25 22:33N 49°47' W 123°56'3 2.7
2015-Aug-25 21:33N 49°49' W 123°54'1 1.3
2015-Aug-25 20:33N 49°50' W 123°53'5 4.6
2015-Aug-25 19:33N 49°55' W 123°52'0 0.1
2015-Aug-25 18:33N 49°55' W 123°52'0 0.1
2015-Aug-25 17:33N 49°55' W 123°53'0 0.2
2015-Aug-25 16:34N 49°55' W 123°53'0 0.2
2015-Aug-25 15:33N 49°55' W 123°53'0 0.1
2015-Aug-25 14:33N 49°55' W 123°53'0 0.2
2015-Aug-25 13:33N 49°55' W 123°53'0 0.0
2015-Aug-25 12:33N 49°55' W 123°53'0 0.0
2015-Aug-25 11:33N 49°55' W 123°53'0 0.0
2015-Aug-25 10:32N 49°55' W 123°53'0 0.0
2015-Aug-25 09:33N 49°55' W 123°53'0 0.0
2015-Aug-25 08:33N 49°55' W 123°53'0 0.0
2015-Aug-25 07:33N 49°55' W 123°53'0 0.0
2015-Aug-25 06:33N 49°55' W 123°53'0 0.0
2015-Aug-25 05:33N 49°55' W 123°53'5 5.2
2015-Aug-25 04:33N 49°50' W 123°54'7 6.5
2015-Aug-25 03:33N 49°44' W 123°53'4 4.4
2015-Aug-25 02:33N 49°43' W 123°47'0 0.3
2015-Aug-25 01:34N 49°43' W 123°46'0 0.4
2015-Aug-25 00:33N 49°43' W 123°47'1 0.7
2015-Aug-24 23:33N 49°43' W 123°46'1 0.7
2015-Aug-24 22:33N 49°43' W 123°47'1 0.7
2015-Aug-24 21:33N 49°43' W 123°46'0 0.2
2015-Aug-24 20:33N 49°43' W 123°46'0 0.4
2015-Aug-24 19:33N 49°43' W 123°46'0 0.1
2015-Aug-24 18:33N 49°43' W 123°46'0 0.5
2015-Aug-24 17:33N 49°43' W 123°47'0 0.1
2015-Aug-24 16:33N 49°43' W 123°47'0 0.5
2015-Aug-24 15:33N 49°43' W 123°46'1 0.6
2015-Aug-24 14:33N 49°43' W 123°47'0 0.0
2015-Aug-24 13:33N 49°43' W 123°47'0 0.0
2015-Aug-24 12:33N 49°43' W 123°47'0 0.0
2015-Aug-24 11:33N 49°43' W 123°47'0 0.0
2015-Aug-24 10:33N 49°43' W 123°47'0 0.0
2015-Aug-24 09:33N 49°43' W 123°47'6 5.8
2015-Aug-24 08:33N 49°45' W 123°55'7 7.6
2015-Aug-24 07:33N 49°41' W 124°04'9 8.6
2015-Aug-24 06:33N 49°33' W 124°00'9 9.2
2015-Aug-24 05:33N 49°26' W 123°50'10 9.6
2015-Aug-24 04:33N 49°19' W 123°40'9 9.1
2015-Aug-24 03:33N 49°13' W 123°30'9 8.8
2015-Aug-24 02:33N 49°07' W 123°20'6 6.4
2015-Aug-24 01:33N 49°07' W 123°10'1 0.8
2015-Aug-24 00:33N 49°07' W 123°11'0 0.0
2015-Aug-23 23:33N 49°07' W 123°11'0 0.0
2015-Aug-23 22:33N 49°07' W 123°11'0 0.0
2015-Aug-23 21:33N 49°07' W 123°11'1 0.8
2015-Aug-23 20:33N 49°07' W 123°10'1 0.9
2015-Aug-23 19:33N 49°07' W 123°11'0 0.0
2015-Aug-23 18:34N 49°07' W 123°11'0 0.0
2015-Aug-23 17:34N 49°07' W 123°11'0 0.0
2015-Aug-23 16:33N 49°07' W 123°11'0 0.0
2015-Aug-23 15:33N 49°07' W 123°11'0 0.0
2015-Aug-23 14:33N 49°07' W 123°11'0 0.0
2015-Aug-23 13:34N 49°07' W 123°11'0 0.0
2015-Aug-23 12:34N 49°07' W 123°11'0 0.0
2015-Aug-23 11:34N 49°07' W 123°11'0 0.0
2015-Aug-23 10:34N 49°07' W 123°11'0 0.0
2015-Aug-23 09:34N 49°07' W 123°11'0 0.0
2015-Aug-23 08:33N 49°07' W 123°11'0 0.0
2015-Aug-23 07:33N 49°07' W 123°11'0 0.0
2015-Aug-23 06:33N 49°07' W 123°11'0 0.0
2015-Aug-23 05:33N 49°07' W 123°11'0 0.0
2015-Aug-23 04:33N 49°07' W 123°11'0 0.0
2015-Aug-23 03:34N 49°07' W 123°11'0 0.0
2015-Aug-23 02:33N 49°07' W 123°11'0 0.0
2015-Aug-23 01:33N 49°07' W 123°11'0 0.0
2015-Aug-23 00:33N 49°07' W 123°11'0 0.0
2015-Aug-22 23:34N 49°07' W 123°11'0 0.0
2015-Aug-22 22:34N 49°07' W 123°11'0 0.0
2015-Aug-22 21:34N 49°07' W 123°11'0 0.0
2015-Aug-22 20:33N 49°07' W 123°11'5 4.8
2015-Aug-22 19:33N 49°06' W 123°18'9 9.2
2015-Aug-22 18:33N 49°16' W 123°17'8 8.2
2015-Aug-22 17:33N 49°12' W 123°06'0 0.2
2015-Aug-22 16:33N 49°12' W 123°06'0 0.0
2015-Aug-22 15:33N 49°12' W 123°06'0 0.0
2015-Aug-22 14:33N 49°12' W 123°06'0 0.0
2015-Aug-22 13:33N 49°12' W 123°06'0 0.0
2015-Aug-22 12:33N 49°12' W 123°06'0 0.0
2015-Aug-22 11:33N 49°12' W 123°06'0 0.0
2015-Aug-22 10:33N 49°12' W 123°06'0 0.0
2015-Aug-22 09:33N 49°12' W 123°06'3 3.0
2015-Aug-22 08:33N 49°13' W 123°10'7 7.2
2015-Aug-22 07:33N 49°17' W 123°20'8 8.2
2015-Aug-22 06:33N 49°20' W 123°31'8 8.1
2015-Aug-22 05:33N 49°24' W 123°42'8 8.2
2015-Aug-22 04:33N 49°28' W 123°53'8 8.0
2015-Aug-22 03:33N 49°33' W 124°02'8 7.9
2015-Aug-22 02:33N 49°41' W 124°04'7 6.9
2015-Aug-22 01:33N 49°45' W 123°56'4 3.8
2015-Aug-22 00:34N 49°42' W 123°53'5 4.5
2015-Aug-21 23:34N 49°43' W 123°46'0 0.0
2015-Aug-21 22:33N 49°43' W 123°46'0 0.1
2015-Aug-21 21:33N 49°43' W 123°46'0 0.3
2015-Aug-21 20:33N 49°43' W 123°46'0 0.3
2015-Aug-21 19:34N 49°43' W 123°46'0 0.1
2015-Aug-21 18:33N 49°43' W 123°46'0 0.0
2015-Aug-21 17:33N 49°43' W 123°46'0 0.1
2015-Aug-21 16:33N 49°43' W 123°46'1 0.6
2015-Aug-21 15:33N 49°43' W 123°47'1 0.6
2015-Aug-21 14:33N 49°43' W 123°46'2 2.0
2015-Aug-21 13:33N 49°41' W 123°48'2 1.5
2015-Aug-21 12:33N 49°40' W 123°50'0 0.0
2015-Aug-21 11:33N 49°40' W 123°50'0 0.0
2015-Aug-21 10:33N 49°40' W 123°50'0 0.0
2015-Aug-21 09:33N 49°40' W 123°50'0 0.0
2015-Aug-21 08:33N 49°40' W 123°50'0 0.0
2015-Aug-21 07:33N 49°40' W 123°50'0 0.0
2015-Aug-21 06:33N 49°40' W 123°50'0 0.0
2015-Aug-21 05:33N 49°40' W 123°50'0 0.0
2015-Aug-21 04:33N 49°40' W 123°50'0 0.0
2015-Aug-21 03:33N 49°40' W 123°50'0 0.3
2015-Aug-21 02:33N 49°40' W 123°50'4 3.6
2015-Aug-21 01:33N 49°43' W 123°46'0 0.5
2015-Aug-21 00:33N 49°43' W 123°47'0 0.4
2015-Aug-20 23:34N 49°43' W 123°46'0 0.0
2015-Aug-20 22:34N 49°43' W 123°46'4 3.7
2015-Aug-20 21:33N 49°40' W 123°50'4 3.8
2015-Aug-20 20:33N 49°38' W 123°45'8 8.3
2015-Aug-20 19:33N 49°41' W 123°34'1 1.4
2015-Aug-20 18:33N 49°40' W 123°36'1 1.0
2015-Aug-20 17:33N 49°41' W 123°34'0 0.3
2015-Aug-20 16:33N 49°41' W 123°35'1 1.5
2015-Aug-20 15:34N 49°40' W 123°36'7 6.8
2015-Aug-20 14:34N 49°37' W 123°46'7 6.5
2015-Aug-20 13:33N 49°42' W 123°53'6 6.3
2015-Aug-20 12:33N 49°47' W 123°60'8 8.2
2015-Aug-20 11:33N 49°46' W 124°12'8 8.1
2015-Aug-20 10:33N 49°45' W 124°25'10 9.6
2015-Aug-20 09:33N 49°49' W 124°38'9 9.5
2015-Aug-20 08:33N 49°52' W 124°52'10 9.5
2015-Aug-20 07:33N 49°55' W 125°06'7 7.5
2015-Aug-20 06:33N 50°01' W 125°14'6 6.2
2015-Aug-20 05:33N 50°07' W 125°17'4 4.3
2015-Aug-20 04:33N 50°03' W 125°14'1 0.6
2015-Aug-20 03:33N 50°02' W 125°15'0 0.0
2015-Aug-20 02:33N 50°02' W 125°15'0 0.1
2015-Aug-20 01:33N 50°02' W 125°15'0 0.1
2015-Aug-20 00:34N 50°02' W 125°15'0 0.0
2015-Aug-19 23:33N 50°02' W 125°15'0 0.0
2015-Aug-19 22:33N 50°02' W 125°15'0 0.0
2015-Aug-19 18:04N 50°02' W 125°15'0 0.0
2015-Aug-19 17:33N 50°02' W 125°15'0 0.0
2015-Aug-19 16:33N 50°02' W 125°15'0 0.0
2015-Aug-19 15:33N 50°02' W 125°15'0 0.0
2015-Aug-19 14:33N 50°02' W 125°15'0 0.0
2015-Aug-19 13:33N 50°02' W 125°15'0 0.0
2015-Aug-19 12:33N 50°02' W 125°15'0 0.0
2015-Aug-19 11:33N 50°02' W 125°15'0 0.0
2015-Aug-19 10:33N 50°02' W 125°15'0 0.0
2015-Aug-19 09:33N 50°02' W 125°15'0 0.0
2015-Aug-19 08:33N 50°02' W 125°15'0 0.0
2015-Aug-19 07:33N 50°02' W 125°15'0 0.0
2015-Aug-19 06:33N 50°02' W 125°15'0 0.0
2015-Aug-19 05:33N 50°02' W 125°15'0 0.0
2015-Aug-19 04:33N 50°02' W 125°15'0 0.0
2015-Aug-19 03:33N 50°02' W 125°15'0 0.0
2015-Aug-19 02:33N 50°02' W 125°15'0 0.0
2015-Aug-19 01:33N 50°02' W 125°15'0 0.0
2015-Aug-19 00:33N 50°02' W 125°15'0 0.0
2015-Aug-18 23:33N 50°02' W 125°15'0 0.0
2015-Aug-18 22:33N 50°02' W 125°15'0 0.0
2015-Aug-18 21:33N 50°02' W 125°15'0 0.0
2015-Aug-18 20:33N 50°02' W 125°15'0 0.0
2015-Aug-18 19:33N 50°02' W 125°15'0 0.0
2015-Aug-18 18:33N 50°02' W 125°15'0 0.0
2015-Aug-18 17:33N 50°02' W 125°15'0 0.0
2015-Aug-18 16:33N 50°02' W 125°15'0 0.0
2015-Aug-18 15:33N 50°02' W 125°15'0 0.0
2015-Aug-18 14:33N 50°02' W 125°15'0 0.0
2015-Aug-18 13:33N 50°02' W 125°15'0 0.0
2015-Aug-18 12:33N 50°02' W 125°15'0 0.0
2015-Aug-18 11:33N 50°02' W 125°15'0 0.0
2015-Aug-18 10:33N 50°02' W 125°15'0 0.0
2015-Aug-18 09:33N 50°02' W 125°15'0 0.0
2015-Aug-18 08:33N 50°02' W 125°15'0 0.0
2015-Aug-18 07:33N 50°02' W 125°15'0 0.0
2015-Aug-18 06:33N 50°02' W 125°15'0 0.0
2015-Aug-18 05:33N 50°02' W 125°15'0 0.0
2015-Aug-18 04:33N 50°02' W 125°15'0 0.0
2015-Aug-18 04:11N 50°02' W 125°15'0 0.0
2015-Aug-18 04:08N 50°02' W 125°15'0 0.0
2015-Aug-18 03:33N 50°02' W 125°15'0 0.0
2015-Aug-18 02:33N 50°02' W 125°15'0 0.0
2015-Aug-18 01:33N 50°02' W 125°15'0 0.1
2015-Aug-18 00:33N 50°02' W 125°15'0 0.0
2015-Aug-17 23:33N 50°02' W 125°15'  

Dump ship's entire track history